Chatham, MA (02633)

5:28 AM EST on December 08, 2016 (GMT -0500)
Chatham | | Change Station
Active Advisory: Special Statement

Elev 43 ft 41.69 °N, 69.97 °W | Updated 11 seconds ago

Clear
Clear
36.7 °F
Feels Like 37 °F
N
0.4
Wind Variable Wind from WSW
Gusts 2.5 mph

Today
High -- | Low -- °F
--% Chance of Precip.
Yesterday
High -- | Low -- °F
Precip. -- in
Pressure 29.97 in
Visibility 10.0 miles
Clouds Clear
Windchill 37 °F
Dew Point 32 °F
Humidity 81%
Rainfall 0.00 in
Snow Depth Not available.
6:54 AM 4:09 PM
First Quarter, 62% visible
METAR KCQX 080952Z AUTO 30003KT 10SM CLR 03/01 A2996 RMK AO2 SLP147 T00280011
Pressure 29.97 in
Visibility 10.0 miles
Clouds Clear
Windchill 37 °F
Dew Point 32 °F
Humidity 81%
Rainfall 0.00 in
Snow Depth Not available.
6:54 AM 4:09 PM
First Quarter, 62% visible
METAR KCQX 080952Z AUTO 30003KT 10SM CLR 03/01 A2996 RMK AO2 SLP147 T00280011

10-Day Weather Forecast

Almanac

Astronomy

Dec. 08, 2016 Rise Set
Actual Time
Civil Twilight
Nautical Twilight
Astronomical Twilight
Moon
Length of Visible Light
Length of Day
Tomorrow will be .
, % of the Moon is Illuminated

Today's Extremes

State Highs State Lows

Community

WunderPhotos

Upload Photos

1,956,261 photos uploaded!

WunderBlog® & News

Nearby

Air Quality

  Air Quality AQ Index Pollutant
Not available.

Snow Depth

Station Depth Elevation

Earthquake Activity

City Distance Mag. Time & Date
Minimum magnitude displayed is 2.5.

Coastal Water Temperatures

Place Temperature

Stations

Nearby Weather Stations

Station Location Temp. Windchill Dew Point Humidity Wind Precip. Elev Updated Type
                   

Watches & Warnings

Special Statement
Issued: 4:58 AM EST Dec. 8, 2016 – National Weather Service

... Patchy dense fog is likely this morning...

Light winds and some breaks in the cloud cover have allowed patchy
dense fog to form across much of southern New England. Fog is most
dense across portions of western and northern Massachusetts. Fog
should dissipate by mid-morning. Motorists should slow down and
use low beams when traveling this morning.


Rlg

458 am EST Thu Dec 8 2016

... Patchy dense fog is likely this morning...

Light winds and some breaks in the cloud cover have allowed patchy
dense fog to form across much of southern New England. Fog is most
dense across portions of western and northern Massachusetts. Fog
should dissipate by mid-morning. Motorists should slow down and
use low beams when traveling this morning.


Rlg